Terminal Aerodrome Forecast
Issued by NWS Northern Indiana

Home | Current Version | Previous Version | Graphics & Text | Print | Product List | Glossary On
Versions: 1 2 3 4 5 6 7 8 9 10 11 12 13 14 15 16
883
FTUS43 KIWX 102340
TAFFWA
TAF
KFWA 102340Z 1100/1124 26013G20KT 6SM -SHSN BR SCT025 BKN040
      TEMPO 1100/1102 5SM -SHSN BKN025
     FM110200 28010KT P6SM -SN BKN030=

USA.gov is the U.S. government's official web portal to all federal, state and local government web resources and services.